sensor_id;sensor_type;location;lat;lon;timestamp;P1;durP1;ratioP1;P2;durP2;ratioP2
44137;SDS011;29800;55.942;37.314;2023-05-07T00:00:25;5.45;;;2.63;;
44137;SDS011;29800;55.942;37.314;2023-05-07T00:02:52;6.13;;;2.53;;
44137;SDS011;29800;55.942;37.314;2023-05-07T00:05:18;5.90;;;2.40;;
44137;SDS011;29800;55.942;37.314;2023-05-07T00:07:45;4.65;;;2.55;;
44137;SDS011;29800;55.942;37.314;2023-05-07T00:10:12;4.57;;;2.83;;
44137;SDS011;29800;55.942;37.314;2023-05-07T00:12:38;5.43;;;2.65;;
44137;SDS011;29800;55.942;37.314;2023-05-07T00:15:06;3.88;;;2.30;;
44137;SDS011;29800;55.942;37.314;2023-05-07T00:17:34;6.68;;;2.33;;
44137;SDS011;29800;55.942;37.314;2023-05-07T00:20:01;5.10;;;2.72;;
44137;SDS011;29800;55.942;37.314;2023-05-07T00:22:32;5.20;;;2.78;;
44137;SDS011;29800;55.942;37.314;2023-05-07T00:24:59;6.75;;;2.50;;
44137;SDS011;29800;55.942;37.314;2023-05-07T00:27:26;4.70;;;2.72;;
44137;SDS011;29800;55.942;37.314;2023-05-07T00:29:52;3.90;;;2.65;;
44137;SDS011;29800;55.942;37.314;2023-05-07T00:32:19;6.00;;;2.90;;
44137;SDS011;29800;55.942;37.314;2023-05-07T00:34:45;7.38;;;3.00;;
44137;SDS011;29800;55.942;37.314;2023-05-07T00:37:12;6.65;;;3.20;;
44137;SDS011;29800;55.942;37.314;2023-05-07T00:39:38;5.53;;;2.90;;
44137;SDS011;29800;55.942;37.314;2023-05-07T00:42:05;5.63;;;2.78;;
44137;SDS011;29800;55.942;37.314;2023-05-07T00:44:31;6.30;;;3.35;;
44137;SDS011;29800;55.942;37.314;2023-05-07T00:46:58;8.27;;;3.40;;
44137;SDS011;29800;55.942;37.314;2023-05-07T00:49:38;7.63;;;3.08;;
44137;SDS011;29800;55.942;37.314;2023-05-07T00:52:07;8.88;;;3.55;;
44137;SDS011;29800;55.942;37.314;2023-05-07T00:54:37;6.95;;;3.28;;
44137;SDS011;29800;55.942;37.314;2023-05-07T00:57:04;5.45;;;3.13;;
44137;SDS011;29800;55.942;37.314;2023-05-07T00:59:32;6.20;;;3.30;;
44137;SDS011;29800;55.942;37.314;2023-05-07T01:01:59;9.55;;;3.50;;
44137;SDS011;29800;55.942;37.314;2023-05-07T01:04:25;5.88;;;3.17;;
44137;SDS011;29800;55.942;37.314;2023-05-07T01:06:53;8.32;;;3.00;;
44137;SDS011;29800;55.942;37.314;2023-05-07T01:09:23;9.82;;;3.03;;
44137;SDS011;29800;55.942;37.314;2023-05-07T01:11:51;10.35;;;3.33;;
44137;SDS011;29800;55.942;37.314;2023-05-07T01:14:19;6.70;;;3.20;;
44137;SDS011;29800;55.942;37.314;2023-05-07T01:16:47;8.25;;;3.40;;
44137;SDS011;29800;55.942;37.314;2023-05-07T01:19:16;6.63;;;2.97;;
44137;SDS011;29800;55.942;37.314;2023-05-07T01:21:46;5.82;;;2.78;;
44137;SDS011;29800;55.942;37.314;2023-05-07T01:24:16;5.22;;;2.67;;
44137;SDS011;29800;55.942;37.314;2023-05-07T01:26:44;3.17;;;2.50;;
44137;SDS011;29800;55.942;37.314;2023-05-07T01:29:14;5.97;;;2.60;;
44137;SDS011;29800;55.942;37.314;2023-05-07T01:31:40;7.43;;;3.17;;
44137;SDS011;29800;55.942;37.314;2023-05-07T01:34:09;5.95;;;3.05;;
44137;SDS011;29800;55.942;37.314;2023-05-07T01:36:39;4.82;;;2.72;;
44137;SDS011;29800;55.942;37.314;2023-05-07T01:39:08;6.20;;;3.00;;
44137;SDS011;29800;55.942;37.314;2023-05-07T01:41:36;3.97;;;2.50;;
44137;SDS011;29800;55.942;37.314;2023-05-07T01:44:03;4.50;;;2.53;;
44137;SDS011;29800;55.942;37.314;2023-05-07T01:46:31;6.20;;;2.60;;
44137;SDS011;29800;55.942;37.314;2023-05-07T01:48:59;5.53;;;2.80;;
44137;SDS011;29800;55.942;37.314;2023-05-07T01:51:25;6.00;;;3.00;;
44137;SDS011;29800;55.942;37.314;2023-05-07T01:53:53;12.55;;;3.50;;
44137;SDS011;29800;55.942;37.314;2023-05-07T01:56:20;5.60;;;3.80;;
44137;SDS011;29800;55.942;37.314;2023-05-07T01:58:47;9.00;;;3.60;;
44137;SDS011;29800;55.942;37.314;2023-05-07T02:01:14;6.32;;;3.85;;
44137;SDS011;29800;55.942;37.314;2023-05-07T02:03:42;5.90;;;4.00;;
44137;SDS011;29800;55.942;37.314;2023-05-07T02:06:16;6.00;;;3.50;;
44137;SDS011;29800;55.942;37.314;2023-05-07T02:08:43;6.85;;;3.53;;
44137;SDS011;29800;55.942;37.314;2023-05-07T02:11:11;8.23;;;3.97;;
44137;SDS011;29800;55.942;37.314;2023-05-07T02:13:38;7.53;;;3.25;;
44137;SDS011;29800;55.942;37.314;2023-05-07T02:16:05;7.72;;;3.63;;
44137;SDS011;29800;55.942;37.314;2023-05-07T02:18:32;5.63;;;4.15;;
44137;SDS011;29800;55.942;37.314;2023-05-07T02:20:59;8.57;;;3.92;;
44137;SDS011;29800;55.942;37.314;2023-05-07T02:23:26;9.10;;;3.70;;
44137;SDS011;29800;55.942;37.314;2023-05-07T02:25:53;10.73;;;5.00;;
44137;SDS011;29800;55.942;37.314;2023-05-07T02:28:20;10.45;;;5.18;;
44137;SDS011;29800;55.942;37.314;2023-05-07T02:31:04;8.20;;;4.95;;
44137;SDS011;29800;55.942;37.314;2023-05-07T02:33:31;11.52;;;5.03;;
44137;SDS011;29800;55.942;37.314;2023-05-07T02:36:08;7.47;;;4.07;;
44137;SDS011;29800;55.942;37.314;2023-05-07T02:38:40;13.98;;;3.83;;
44137;SDS011;29800;55.942;37.314;2023-05-07T02:41:07;6.43;;;4.15;;
44137;SDS011;29800;55.942;37.314;2023-05-07T02:43:33;10.90;;;4.15;;
44137;SDS011;29800;55.942;37.314;2023-05-07T02:46:01;8.07;;;5.18;;
44137;SDS011;29800;55.942;37.314;2023-05-07T02:48:28;6.13;;;3.50;;
44137;SDS011;29800;55.942;37.314;2023-05-07T02:50:55;6.40;;;3.33;;
44137;SDS011;29800;55.942;37.314;2023-05-07T02:53:22;6.80;;;3.20;;
44137;SDS011;29800;55.942;37.314;2023-05-07T02:55:48;4.57;;;2.72;;
44137;SDS011;29800;55.942;37.314;2023-05-07T02:58:14;3.92;;;2.33;;
44137;SDS011;29800;55.942;37.314;2023-05-07T03:00:42;8.57;;;2.75;;
44137;SDS011;29800;55.942;37.314;2023-05-07T03:03:19;7.65;;;3.70;;
44137;SDS011;29800;55.942;37.314;2023-05-07T03:05:45;8.00;;;4.03;;
44137;SDS011;29800;55.942;37.314;2023-05-07T03:08:12;6.43;;;4.30;;
44137;SDS011;29800;55.942;37.314;2023-05-07T03:10:39;9.23;;;3.97;;
44137;SDS011;29800;55.942;37.314;2023-05-07T03:13:05;5.07;;;3.53;;
44137;SDS011;29800;55.942;37.314;2023-05-07T03:15:32;10.25;;;3.70;;
44137;SDS011;29800;55.942;37.314;2023-05-07T03:17:58;5.05;;;2.90;;
44137;SDS011;29800;55.942;37.314;2023-05-07T03:20:25;6.82;;;3.70;;
44137;SDS011;29800;55.942;37.314;2023-05-07T03:22:52;6.00;;;3.60;;
44137;SDS011;29800;55.942;37.314;2023-05-07T03:25:18;5.72;;;3.22;;
44137;SDS011;29800;55.942;37.314;2023-05-07T03:27:46;3.53;;;2.00;;
44137;SDS011;29800;55.942;37.314;2023-05-07T03:30:13;3.70;;;2.25;;
44137;SDS011;29800;55.942;37.314;2023-05-07T03:32:39;6.95;;;2.88;;
44137;SDS011;29800;55.942;37.314;2023-05-07T03:35:09;3.83;;;2.38;;
44137;SDS011;29800;55.942;37.314;2023-05-07T03:37:35;3.42;;;2.22;;
44137;SDS011;29800;55.942;37.314;2023-05-07T03:40:02;4.78;;;2.70;;
44137;SDS011;29800;55.942;37.314;2023-05-07T03:42:32;4.70;;;2.08;;
44137;SDS011;29800;55.942;37.314;2023-05-07T03:44:59;4.60;;;2.30;;
44137;SDS011;29800;55.942;37.314;2023-05-07T03:47:25;4.63;;;1.85;;
44137;SDS011;29800;55.942;37.314;2023-05-07T03:49:52;3.92;;;2.10;;
44137;SDS011;29800;55.942;37.314;2023-05-07T03:52:20;4.80;;;1.92;;
44137;SDS011;29800;55.942;37.314;2023-05-07T03:54:52;3.55;;;2.20;;
44137;SDS011;29800;55.942;37.314;2023-05-07T03:57:20;3.70;;;1.80;;
44137;SDS011;29800;55.942;37.314;2023-05-07T03:59:47;3.42;;;1.92;;
44137;SDS011;29800;55.942;37.314;2023-05-07T04:02:13;3.42;;;1.90;;
44137;SDS011;29800;55.942;37.314;2023-05-07T04:04:40;3.15;;;1.70;;
44137;SDS011;29800;55.942;37.314;2023-05-07T04:07:07;6.15;;;1.95;;
44137;SDS011;29800;55.942;37.314;2023-05-07T04:09:39;2.55;;;1.75;;
44137;SDS011;29800;55.942;37.314;2023-05-07T04:12:05;2.22;;;1.70;;
44137;SDS011;29800;55.942;37.314;2023-05-07T04:14:33;4.00;;;1.60;;
44137;SDS011;29800;55.942;37.314;2023-05-07T04:17:00;3.85;;;2.05;;
44137;SDS011;29800;55.942;37.314;2023-05-07T04:19:29;3.85;;;1.80;;
44137;SDS011;29800;55.942;37.314;2023-05-07T04:21:56;2.67;;;1.77;;
44137;SDS011;29800;55.942;37.314;2023-05-07T04:24:22;3.35;;;1.73;;
44137;SDS011;29800;55.942;37.314;2023-05-07T04:26:49;4.75;;;1.60;;
44137;SDS011;29800;55.942;37.314;2023-05-07T04:29:17;4.88;;;1.70;;
44137;SDS011;29800;55.942;37.314;2023-05-07T04:31:44;3.88;;;2.08;;
44137;SDS011;29800;55.942;37.314;2023-05-07T04:34:11;3.97;;;2.42;;
44137;SDS011;29800;55.942;37.314;2023-05-07T04:36:39;4.50;;;1.85;;
44137;SDS011;29800;55.942;37.314;2023-05-07T04:39:10;3.67;;;1.95;;
44137;SDS011;29800;55.942;37.314;2023-05-07T04:41:38;4.85;;;1.85;;
44137;SDS011;29800;55.942;37.314;2023-05-07T04:44:06;3.58;;;1.63;;
44137;SDS011;29800;55.942;37.314;2023-05-07T04:46:35;3.25;;;1.70;;
44137;SDS011;29800;55.942;37.314;2023-05-07T04:49:02;3.58;;;1.77;;
44137;SDS011;29800;55.942;37.314;2023-05-07T04:51:29;2.65;;;1.60;;
44137;SDS011;29800;55.942;37.314;2023-05-07T04:53:56;3.10;;;1.50;;
44137;SDS011;29800;55.942;37.314;2023-05-07T04:56:23;3.45;;;1.70;;
44137;SDS011;29800;55.942;37.314;2023-05-07T04:58:50;4.13;;;1.80;;
44137;SDS011;29800;55.942;37.314;2023-05-07T05:01:19;2.60;;;1.60;;
44137;SDS011;29800;55.942;37.314;2023-05-07T05:03:46;2.67;;;1.70;;
44137;SDS011;29800;55.942;37.314;2023-05-07T05:06:13;2.58;;;1.58;;
44137;SDS011;29800;55.942;37.314;2023-05-07T05:08:39;2.30;;;1.50;;
44137;SDS011;29800;55.942;37.314;2023-05-07T05:11:06;4.60;;;1.88;;
44137;SDS011;29800;55.942;37.314;2023-05-07T05:13:34;3.47;;;1.63;;
44137;SDS011;29800;55.942;37.314;2023-05-07T05:16:07;2.97;;;1.70;;
44137;SDS011;29800;55.942;37.314;2023-05-07T05:18:34;4.47;;;1.83;;
44137;SDS011;29800;55.942;37.314;2023-05-07T05:21:00;2.28;;;1.23;;
44137;SDS011;29800;55.942;37.314;2023-05-07T05:23:27;3.35;;;1.50;;
44137;SDS011;29800;55.942;37.314;2023-05-07T05:25:55;2.65;;;1.52;;
44137;SDS011;29800;55.942;37.314;2023-05-07T05:28:26;2.72;;;1.30;;
44137;SDS011;29800;55.942;37.314;2023-05-07T05:30:53;3.05;;;1.48;;
44137;SDS011;29800;55.942;37.314;2023-05-07T05:33:22;4.63;;;1.50;;
44137;SDS011;29800;55.942;37.314;2023-05-07T05:35:49;3.08;;;1.25;;
44137;SDS011;29800;55.942;37.314;2023-05-07T05:38:16;2.60;;;1.30;;
44137;SDS011;29800;55.942;37.314;2023-05-07T05:40:43;2.75;;;1.13;;
44137;SDS011;29800;55.942;37.314;2023-05-07T05:43:10;2.35;;;1.38;;
44137;SDS011;29800;55.942;37.314;2023-05-07T05:45:37;3.22;;;1.30;;
44137;SDS011;29800;55.942;37.314;2023-05-07T05:48:05;1.90;;;1.25;;
44137;SDS011;29800;55.942;37.314;2023-05-07T05:50:35;2.00;;;1.20;;
44137;SDS011;29800;55.942;37.314;2023-05-07T05:53:03;2.38;;;1.30;;
44137;SDS011;29800;55.942;37.314;2023-05-07T05:55:30;4.65;;;1.50;;
44137;SDS011;29800;55.942;37.314;2023-05-07T05:57:59;2.58;;;1.42;;
44137;SDS011;29800;55.942;37.314;2023-05-07T06:00:31;3.25;;;1.77;;
44137;SDS011;29800;55.942;37.314;2023-05-07T06:03:02;3.80;;;1.88;;
44137;SDS011;29800;55.942;37.314;2023-05-07T06:05:29;3.50;;;1.85;;
44137;SDS011;29800;55.942;37.314;2023-05-07T06:07:56;2.58;;;1.55;;
44137;SDS011;29800;55.942;37.314;2023-05-07T06:10:23;2.28;;;1.70;;
44137;SDS011;29800;55.942;37.314;2023-05-07T06:12:51;2.63;;;1.55;;
44137;SDS011;29800;55.942;37.314;2023-05-07T06:15:17;2.70;;;1.50;;
44137;SDS011;29800;55.942;37.314;2023-05-07T06:17:45;3.40;;;1.15;;
44137;SDS011;29800;55.942;37.314;2023-05-07T06:20:11;1.38;;;0.90;;
44137;SDS011;29800;55.942;37.314;2023-05-07T06:22:39;2.38;;;1.05;;
44137;SDS011;29800;55.942;37.314;2023-05-07T06:25:07;2.15;;;1.10;;
44137;SDS011;29800;55.942;37.314;2023-05-07T06:27:33;2.78;;;1.10;;
44137;SDS011;29800;55.942;37.314;2023-05-07T06:30:00;1.88;;;1.00;;
44137;SDS011;29800;55.942;37.314;2023-05-07T06:32:27;3.53;;;1.17;;
44137;SDS011;29800;55.942;37.314;2023-05-07T06:34:54;3.42;;;1.38;;
44137;SDS011;29800;55.942;37.314;2023-05-07T06:37:21;2.15;;;1.20;;
44137;SDS011;29800;55.942;37.314;2023-05-07T06:39:53;2.95;;;1.10;;
44137;SDS011;29800;55.942;37.314;2023-05-07T06:42:19;2.20;;;1.10;;
44137;SDS011;29800;55.942;37.314;2023-05-07T06:44:48;2.22;;;1.00;;
44137;SDS011;29800;55.942;37.314;2023-05-07T06:47:16;2.75;;;1.20;;
44137;SDS011;29800;55.942;37.314;2023-05-07T06:49:45;2.08;;;1.00;;
44137;SDS011;29800;55.942;37.314;2023-05-07T06:52:16;2.13;;;1.02;;
44137;SDS011;29800;55.942;37.314;2023-05-07T06:54:42;3.22;;;0.90;;
44137;SDS011;29800;55.942;37.314;2023-05-07T06:57:10;2.10;;;0.93;;
44137;SDS011;29800;55.942;37.314;2023-05-07T06:59:36;2.55;;;1.48;;
44137;SDS011;29800;55.942;37.314;2023-05-07T07:02:03;1.38;;;0.90;;
44137;SDS011;29800;55.942;37.314;2023-05-07T07:04:29;1.60;;;0.90;;
44137;SDS011;29800;55.942;37.314;2023-05-07T07:07:04;1.63;;;1.07;;
44137;SDS011;29800;55.942;37.314;2023-05-07T07:09:30;5.03;;;2.60;;
44137;SDS011;29800;55.942;37.314;2023-05-07T07:11:59;7.55;;;3.45;;
44137;SDS011;29800;55.942;37.314;2023-05-07T07:14:27;2.22;;;1.38;;
44137;SDS011;29800;55.942;37.314;2023-05-07T07:16:54;3.60;;;2.05;;
44137;SDS011;29800;55.942;37.314;2023-05-07T07:19:22;3.00;;;1.67;;
44137;SDS011;29800;55.942;37.314;2023-05-07T07:21:51;4.45;;;1.42;;
44137;SDS011;29800;55.942;37.314;2023-05-07T07:24:18;3.08;;;1.65;;
44137;SDS011;29800;55.942;37.314;2023-05-07T07:26:49;1.38;;;1.00;;
44137;SDS011;29800;55.942;37.314;2023-05-07T07:29:17;1.40;;;0.90;;
44137;SDS011;29800;55.942;37.314;2023-05-07T07:31:45;6.03;;;1.77;;
44137;SDS011;29800;55.942;37.314;2023-05-07T07:34:12;1.83;;;1.20;;
44137;SDS011;29800;55.942;37.314;2023-05-07T07:36:39;2.28;;;1.10;;
44137;SDS011;29800;55.942;37.314;2023-05-07T07:39:05;1.95;;;1.13;;
44137;SDS011;29800;55.942;37.314;2023-05-07T07:41:33;4.43;;;2.53;;
44137;SDS011;29800;55.942;37.314;2023-05-07T07:43:59;2.53;;;0.90;;
44137;SDS011;29800;55.942;37.314;2023-05-07T07:46:26;3.38;;;1.48;;
44137;SDS011;29800;55.942;37.314;2023-05-07T07:48:53;2.10;;;1.30;;
44137;SDS011;29800;55.942;37.314;2023-05-07T07:51:21;2.40;;;1.30;;
44137;SDS011;29800;55.942;37.314;2023-05-07T07:53:47;4.07;;;2.40;;
44137;SDS011;29800;55.942;37.314;2023-05-07T07:56:14;3.10;;;1.50;;
44137;SDS011;29800;55.942;37.314;2023-05-07T07:58:42;1.55;;;0.90;;
44137;SDS011;29800;55.942;37.314;2023-05-07T08:01:09;3.58;;;1.15;;
44137;SDS011;29800;55.942;37.314;2023-05-07T08:03:35;1.30;;;0.85;;
44137;SDS011;29800;55.942;37.314;2023-05-07T08:06:02;1.85;;;1.00;;
44137;SDS011;29800;55.942;37.314;2023-05-07T08:08:30;2.60;;;1.10;;
44137;SDS011;29800;55.942;37.314;2023-05-07T08:10:57;4.93;;;1.42;;
44137;SDS011;29800;55.942;37.314;2023-05-07T08:13:29;1.90;;;0.90;;
44137;SDS011;29800;55.942;37.314;2023-05-07T08:15:55;2.38;;;0.90;;
44137;SDS011;29800;55.942;37.314;2023-05-07T08:18:22;1.38;;;0.70;;
44137;SDS011;29800;55.942;37.314;2023-05-07T08:20:51;1.05;;;0.70;;
44137;SDS011;29800;55.942;37.314;2023-05-07T08:23:21;8.85;;;4.25;;
44137;SDS011;29800;55.942;37.314;2023-05-07T08:25:49;2.60;;;1.40;;
44137;SDS011;29800;55.942;37.314;2023-05-07T08:28:18;1.40;;;0.80;;
44137;SDS011;29800;55.942;37.314;2023-05-07T08:30:48;2.53;;;1.30;;
44137;SDS011;29800;55.942;37.314;2023-05-07T08:33:15;2.45;;;1.00;;
44137;SDS011;29800;55.942;37.314;2023-05-07T08:35:42;2.42;;;1.20;;
44137;SDS011;29800;55.942;37.314;2023-05-07T08:38:10;3.25;;;1.58;;
44137;SDS011;29800;55.942;37.314;2023-05-07T08:40:37;3.50;;;1.55;;
44137;SDS011;29800;55.942;37.314;2023-05-07T08:43:08;6.10;;;2.60;;
44137;SDS011;29800;55.942;37.314;2023-05-07T08:45:43;2.35;;;1.20;;
44137;SDS011;29800;55.942;37.314;2023-05-07T08:48:16;4.05;;;0.90;;
44137;SDS011;29800;55.942;37.314;2023-05-07T08:50:49;1.35;;;0.90;;
44137;SDS011;29800;55.942;37.314;2023-05-07T08:53:16;1.77;;;0.70;;
44137;SDS011;29800;55.942;37.314;2023-05-07T08:55:44;3.92;;;1.40;;
44137;SDS011;29800;55.942;37.314;2023-05-07T08:58:12;2.67;;;1.33;;
44137;SDS011;29800;55.942;37.314;2023-05-07T09:00:39;1.90;;;1.20;;
44137;SDS011;29800;55.942;37.314;2023-05-07T09:03:07;2.97;;;1.40;;
44137;SDS011;29800;55.942;37.314;2023-05-07T09:05:35;4.05;;;1.70;;
44137;SDS011;29800;55.942;37.314;2023-05-07T09:08:06;8.10;;;1.30;;
44137;SDS011;29800;55.942;37.314;2023-05-07T09:10:35;2.30;;;1.23;;
44137;SDS011;29800;55.942;37.314;2023-05-07T09:13:03;4.45;;;1.30;;
44137;SDS011;29800;55.942;37.314;2023-05-07T09:15:30;2.88;;;1.33;;
44137;SDS011;29800;55.942;37.314;2023-05-07T09:17:59;6.82;;;1.80;;
44137;SDS011;29800;55.942;37.314;2023-05-07T09:20:30;3.03;;;1.10;;
44137;SDS011;29800;55.942;37.314;2023-05-07T09:22:58;2.35;;;1.00;;
44137;SDS011;29800;55.942;37.314;2023-05-07T09:25:29;1.45;;;0.82;;
44137;SDS011;29800;55.942;37.314;2023-05-07T09:28:00;1.77;;;0.90;;
44137;SDS011;29800;55.942;37.314;2023-05-07T09:30:30;1.50;;;0.77;;
44137;SDS011;29800;55.942;37.314;2023-05-07T09:33:00;3.00;;;1.10;;
44137;SDS011;29800;55.942;37.314;2023-05-07T09:35:29;3.08;;;1.15;;
44137;SDS011;29800;55.942;37.314;2023-05-07T09:38:00;2.75;;;1.30;;
44137;SDS011;29800;55.942;37.314;2023-05-07T09:40:30;1.67;;;0.98;;
44137;SDS011;29800;55.942;37.314;2023-05-07T09:43:11;3.22;;;1.27;;
44137;SDS011;29800;55.942;37.314;2023-05-07T09:45:46;2.65;;;1.63;;
44137;SDS011;29800;55.942;37.314;2023-05-07T09:48:18;1.63;;;0.95;;
44137;SDS011;29800;55.942;37.314;2023-05-07T09:50:48;1.70;;;1.10;;
44137;SDS011;29800;55.942;37.314;2023-05-07T09:53:20;6.10;;;1.20;;
44137;SDS011;29800;55.942;37.314;2023-05-07T09:55:49;2.17;;;1.05;;
44137;SDS011;29800;55.942;37.314;2023-05-07T09:58:19;1.85;;;0.82;;
44137;SDS011;29800;55.942;37.314;2023-05-07T10:00:49;3.58;;;1.40;;
44137;SDS011;29800;55.942;37.314;2023-05-07T10:03:17;4.07;;;1.70;;
44137;SDS011;29800;55.942;37.314;2023-05-07T10:05:58;3.25;;;1.40;;
44137;SDS011;29800;55.942;37.314;2023-05-07T10:08:27;3.85;;;1.88;;
44137;SDS011;29800;55.942;37.314;2023-05-07T10:10:57;2.95;;;1.10;;
44137;SDS011;29800;55.942;37.314;2023-05-07T10:13:27;2.75;;;1.00;;
44137;SDS011;29800;55.942;37.314;2023-05-07T10:15:57;1.73;;;1.00;;
44137;SDS011;29800;55.942;37.314;2023-05-07T10:18:27;6.32;;;3.72;;
44137;SDS011;29800;55.942;37.314;2023-05-07T10:23:49;6.00;;;2.10;;
44137;SDS011;29800;55.942;37.314;2023-05-07T10:26:22;5.43;;;2.70;;
44137;SDS011;29800;55.942;37.314;2023-05-07T10:28:53;4.55;;;2.00;;
44137;SDS011;29800;55.942;37.314;2023-05-07T10:34:39;2.70;;;1.40;;
44137;SDS011;29800;55.942;37.314;2023-05-07T10:37:10;3.83;;;1.80;;
44137;SDS011;29800;55.942;37.314;2023-05-07T10:39:38;2.60;;;1.27;;
44137;SDS011;29800;55.942;37.314;2023-05-07T10:42:11;1.73;;;1.05;;
44137;SDS011;29800;55.942;37.314;2023-05-07T10:44:44;3.88;;;1.95;;
44137;SDS011;29800;55.942;37.314;2023-05-07T10:47:16;3.30;;;1.67;;
44137;SDS011;29800;55.942;37.314;2023-05-07T10:52:23;4.13;;;1.83;;
44137;SDS011;29800;55.942;37.314;2023-05-07T10:55:18;3.97;;;1.27;;
44137;SDS011;29800;55.942;37.314;2023-05-07T10:58:26;3.83;;;1.70;;
44137;SDS011;29800;55.942;37.314;2023-05-07T11:01:02;3.67;;;1.33;;
44137;SDS011;29800;55.942;37.314;2023-05-07T11:03:37;2.53;;;1.35;;
44137;SDS011;29800;55.942;37.314;2023-05-07T11:06:56;5.53;;;1.92;;
44137;SDS011;29800;55.942;37.314;2023-05-07T11:15:50;2.92;;;1.50;;
44137;SDS011;29800;55.942;37.314;2023-05-07T11:18:24;3.97;;;1.70;;
44137;SDS011;29800;55.942;37.314;2023-05-07T11:21:11;2.42;;;1.20;;
44137;SDS011;29800;55.942;37.314;2023-05-07T11:26:22;4.18;;;1.70;;
44137;SDS011;29800;55.942;37.314;2023-05-07T11:28:48;4.68;;;1.75;;
44137;SDS011;29800;55.942;37.314;2023-05-07T11:31:17;4.32;;;2.13;;
44137;SDS011;29800;55.942;37.314;2023-05-07T11:33:51;3.47;;;1.52;;
44137;SDS011;29800;55.942;37.314;2023-05-07T11:36:21;3.65;;;1.52;;
44137;SDS011;29800;55.942;37.314;2023-05-07T11:38:52;2.90;;;1.40;;
44137;SDS011;29800;55.942;37.314;2023-05-07T11:41:18;3.38;;;1.77;;
44137;SDS011;29800;55.942;37.314;2023-05-07T11:43:56;2.55;;;1.20;;
44137;SDS011;29800;55.942;37.314;2023-05-07T11:46:23;5.25;;;1.63;;
44137;SDS011;29800;55.942;37.314;2023-05-07T11:48:50;10.68;;;5.95;;
44137;SDS011;29800;55.942;37.314;2023-05-07T11:51:21;7.20;;;4.38;;
44137;SDS011;29800;55.942;37.314;2023-05-07T11:53:49;6.90;;;3.53;;
44137;SDS011;29800;55.942;37.314;2023-05-07T11:56:16;9.30;;;4.93;;
44137;SDS011;29800;55.942;37.314;2023-05-07T11:58:44;17.42;;;8.02;;
44137;SDS011;29800;55.942;37.314;2023-05-07T12:01:12;27.58;;;10.82;;
44137;SDS011;29800;55.942;37.314;2023-05-07T12:03:41;6.57;;;2.25;;
44137;SDS011;29800;55.942;37.314;2023-05-07T12:06:09;3.90;;;2.42;;
44137;SDS011;29800;55.942;37.314;2023-05-07T12:08:38;2.85;;;1.40;;
44137;SDS011;29800;55.942;37.314;2023-05-07T12:11:09;4.90;;;2.85;;
44137;SDS011;29800;55.942;37.314;2023-05-07T12:13:39;2.70;;;1.55;;
44137;SDS011;29800;55.942;37.314;2023-05-07T12:16:07;3.33;;;2.15;;
44137;SDS011;29800;55.942;37.314;2023-05-07T12:18:34;6.97;;;3.50;;
44137;SDS011;29800;55.942;37.314;2023-05-07T12:21:02;9.73;;;4.70;;
44137;SDS011;29800;55.942;37.314;2023-05-07T12:23:31;4.32;;;2.33;;
44137;SDS011;29800;55.942;37.314;2023-05-07T12:25:59;1.65;;;1.00;;
44137;SDS011;29800;55.942;37.314;2023-05-07T12:28:26;4.93;;;2.13;;
44137;SDS011;29800;55.942;37.314;2023-05-07T12:30:52;4.05;;;1.50;;
44137;SDS011;29800;55.942;37.314;2023-05-07T12:33:23;2.35;;;1.30;;
44137;SDS011;29800;55.942;37.314;2023-05-07T12:35:53;2.67;;;1.20;;
44137;SDS011;29800;55.942;37.314;2023-05-07T12:38:22;4.28;;;1.50;;
44137;SDS011;29800;55.942;37.314;2023-05-07T12:40:50;3.83;;;1.50;;
44137;SDS011;29800;55.942;37.314;2023-05-07T12:43:19;2.28;;;1.45;;
44137;SDS011;29800;55.942;37.314;2023-05-07T12:45:48;3.67;;;1.63;;
44137;SDS011;29800;55.942;37.314;2023-05-07T12:48:16;4.78;;;2.20;;
44137;SDS011;29800;55.942;37.314;2023-05-07T12:50:42;22.40;;;10.88;;
44137;SDS011;29800;55.942;37.314;2023-05-07T12:53:10;11.15;;;5.53;;
44137;SDS011;29800;55.942;37.314;2023-05-07T12:55:45;7.45;;;3.25;;
44137;SDS011;29800;55.942;37.314;2023-05-07T12:58:20;4.82;;;1.90;;
44137;SDS011;29800;55.942;37.314;2023-05-07T13:00:49;14.02;;;4.85;;
44137;SDS011;29800;55.942;37.314;2023-05-07T13:03:24;40.38;;;16.70;;
44137;SDS011;29800;55.942;37.314;2023-05-07T13:05:52;46.97;;;22.73;;
44137;SDS011;29800;55.942;37.314;2023-05-07T13:08:23;41.38;;;20.02;;
44137;SDS011;29800;55.942;37.314;2023-05-07T13:10:55;42.15;;;21.45;;
44137;SDS011;29800;55.942;37.314;2023-05-07T13:13:23;17.58;;;7.78;;
44137;SDS011;29800;55.942;37.314;2023-05-07T13:15:49;13.68;;;6.97;;
44137;SDS011;29800;55.942;37.314;2023-05-07T13:18:16;12.70;;;5.60;;
44137;SDS011;29800;55.942;37.314;2023-05-07T13:20:43;13.88;;;5.03;;
44137;SDS011;29800;55.942;37.314;2023-05-07T13:23:09;8.32;;;3.75;;
44137;SDS011;29800;55.942;37.314;2023-05-07T13:25:35;9.25;;;4.07;;
44137;SDS011;29800;55.942;37.314;2023-05-07T13:28:02;10.70;;;4.65;;
44137;SDS011;29800;55.942;37.314;2023-05-07T13:30:30;4.18;;;2.35;;
44137;SDS011;29800;55.942;37.314;2023-05-07T13:32:56;17.92;;;7.35;;
44137;SDS011;29800;55.942;37.314;2023-05-07T13:35:23;5.93;;;2.17;;
44137;SDS011;29800;55.942;37.314;2023-05-07T13:37:49;5.82;;;2.15;;
44137;SDS011;29800;55.942;37.314;2023-05-07T13:40:18;4.40;;;1.48;;
44137;SDS011;29800;55.942;37.314;2023-05-07T13:42:48;48.70;;;14.90;;
44137;SDS011;29800;55.942;37.314;2023-05-07T13:45:15;23.38;;;7.93;;
44137;SDS011;29800;55.942;37.314;2023-05-07T13:47:41;21.10;;;6.40;;
44137;SDS011;29800;55.942;37.314;2023-05-07T13:50:09;9.30;;;4.05;;
44137;SDS011;29800;55.942;37.314;2023-05-07T13:52:37;6.90;;;2.00;;
44137;SDS011;29800;55.942;37.314;2023-05-07T13:55:06;6.28;;;2.97;;
44137;SDS011;29800;55.942;37.314;2023-05-07T13:57:33;5.28;;;3.47;;
44137;SDS011;29800;55.942;37.314;2023-05-07T13:59:59;4.10;;;2.33;;
44137;SDS011;29800;55.942;37.314;2023-05-07T14:02:30;5.43;;;2.80;;
44137;SDS011;29800;55.942;37.314;2023-05-07T14:04:57;11.93;;;5.22;;
44137;SDS011;29800;55.942;37.314;2023-05-07T14:07:26;8.82;;;4.63;;
44137;SDS011;29800;55.942;37.314;2023-05-07T14:09:53;11.00;;;4.80;;
44137;SDS011;29800;55.942;37.314;2023-05-07T14:12:20;5.93;;;2.95;;
44137;SDS011;29800;55.942;37.314;2023-05-07T14:14:46;6.95;;;4.00;;
44137;SDS011;29800;55.942;37.314;2023-05-07T14:17:13;11.70;;;5.63;;
44137;SDS011;29800;55.942;37.314;2023-05-07T14:19:41;4.95;;;2.60;;
44137;SDS011;29800;55.942;37.314;2023-05-07T14:22:07;4.63;;;2.08;;
44137;SDS011;29800;55.942;37.314;2023-05-07T14:24:34;5.65;;;2.20;;
44137;SDS011;29800;55.942;37.314;2023-05-07T14:27:00;7.07;;;4.03;;
44137;SDS011;29800;55.942;37.314;2023-05-07T14:29:27;12.75;;;6.50;;
44137;SDS011;29800;55.942;37.314;2023-05-07T14:31:54;14.10;;;8.68;;
44137;SDS011;29800;55.942;37.314;2023-05-07T14:34:21;6.82;;;4.63;;
44137;SDS011;29800;55.942;37.314;2023-05-07T14:36:47;6.75;;;3.33;;
44137;SDS011;29800;55.942;37.314;2023-05-07T14:39:14;9.70;;;3.30;;
44137;SDS011;29800;55.942;37.314;2023-05-07T14:41:40;4.63;;;2.05;;
44137;SDS011;29800;55.942;37.314;2023-05-07T14:44:06;4.53;;;1.70;;
44137;SDS011;29800;55.942;37.314;2023-05-07T14:46:33;5.97;;;2.75;;
44137;SDS011;29800;55.942;37.314;2023-05-07T14:49:00;8.63;;;3.85;;
44137;SDS011;29800;55.942;37.314;2023-05-07T14:51:28;9.70;;;4.50;;
44137;SDS011;29800;55.942;37.314;2023-05-07T14:53:54;7.57;;;3.08;;
44137;SDS011;29800;55.942;37.314;2023-05-07T14:56:21;5.13;;;2.90;;
44137;SDS011;29800;55.942;37.314;2023-05-07T14:58:48;5.38;;;2.67;;